createdAt,value
2023-01-30T00:01:35.493Z,0.50
2023-01-30T00:04:04.744Z,0.50
2023-01-30T00:06:33.821Z,0.50
2023-01-30T00:09:04.235Z,0.50
2023-01-30T00:11:33.515Z,0.70
2023-01-30T00:14:02.780Z,0.60
2023-01-30T00:16:31.729Z,0.60
2023-01-30T00:19:00.590Z,0.60
2023-01-30T00:21:29.322Z,0.60
2023-01-30T00:23:59.930Z,0.50
2023-01-30T00:26:30.140Z,0.50
2023-01-30T00:28:58.953Z,0.50
2023-01-30T00:31:27.952Z,0.40
2023-01-30T00:33:56.720Z,0.50
2023-01-30T00:36:25.719Z,0.40
2023-01-30T00:38:54.432Z,0.40
2023-01-30T00:41:23.209Z,0.50
2023-01-30T00:44:10.453Z,0.50
2023-01-30T00:46:59.312Z,0.40
2023-01-30T00:49:28.538Z,0.70
2023-01-30T00:51:57.656Z,0.60
2023-01-30T00:54:26.446Z,0.40
2023-01-30T00:56:55.199Z,0.40
2023-01-30T00:59:29.345Z,0.30
2023-01-30T01:01:58.149Z,0.40
2023-01-30T01:04:27.456Z,0.20
2023-01-30T01:06:56.547Z,0.20
2023-01-30T01:09:25.260Z,0.20
2023-01-30T01:11:54.844Z,0.20
2023-01-30T01:14:23.712Z,0.30
2023-01-30T01:16:54.080Z,0.20
2023-01-30T01:19:24.731Z,0.30
2023-01-30T01:21:53.941Z,0.30
2023-01-30T01:24:23.499Z,0.60
2023-01-30T01:26:53.138Z,0.40
2023-01-30T01:29:22.069Z,0.50
2023-01-30T01:31:50.815Z,0.30
2023-01-30T01:34:21.315Z,0.50
2023-01-30T01:36:53.503Z,0.70
2023-01-30T01:39:24.090Z,0.60
2023-01-30T01:41:51.913Z,0.40
2023-01-30T01:44:20.956Z,0.60
2023-01-30T01:46:53.175Z,0.40
2023-01-30T01:49:26.514Z,0.50
2023-01-30T01:51:58.664Z,0.50
2023-01-30T01:54:33.394Z,0.50
2023-01-30T01:57:06.392Z,0.50
2023-01-30T01:59:40.466Z,0.70
2023-01-30T02:02:13.961Z,0.60
2023-01-30T02:05:06.803Z,0.50
2023-01-30T02:07:41.684Z,0.60
2023-01-30T02:10:18.079Z,0.50
2023-01-30T02:12:51.440Z,0.70
2023-01-30T02:15:21.793Z,0.60
2023-01-30T02:17:50.909Z,0.50
2023-01-30T02:20:31.782Z,0.60
2023-01-30T02:23:36.439Z,0.50
2023-01-30T02:26:36.575Z,0.40
2023-01-30T02:29:42.028Z,0.50
2023-01-30T02:32:19.529Z,0.40
2023-01-30T02:34:57.547Z,0.60
2023-01-30T02:37:35.647Z,0.40
2023-01-30T02:40:18.354Z,0.60
2023-01-30T02:42:52.849Z,0.40
2023-01-30T02:45:27.795Z,0.40
2023-01-30T02:48:02.695Z,0.40
2023-01-30T02:50:38.000Z,0.50
2023-01-30T02:53:07.595Z,0.50
2023-01-30T02:55:36.785Z,0.50
2023-01-30T02:58:06.299Z,0.50
2023-01-30T03:00:49.936Z,0.40
2023-01-30T03:03:34.695Z,0.40
2023-01-30T03:06:26.973Z,0.50
2023-01-30T03:09:07.372Z,0.40
2023-01-30T03:11:44.970Z,0.50
2023-01-30T03:14:20.916Z,0.50
2023-01-30T03:16:53.853Z,0.60
2023-01-30T03:19:25.225Z,0.60
2023-01-30T03:21:53.915Z,0.40
2023-01-30T03:24:23.060Z,0.70
2023-01-30T03:26:57.976Z,0.70
2023-01-30T03:29:27.618Z,0.40
2023-01-30T03:31:57.063Z,0.50
2023-01-30T03:34:27.709Z,0.50
2023-01-30T03:36:56.922Z,0.20
2023-01-30T03:39:26.172Z,0.50
2023-01-30T03:41:55.940Z,0.60
2023-01-30T03:44:25.251Z,0.50
2023-01-30T03:46:55.244Z,0.30
2023-01-30T03:49:26.382Z,0.40
2023-01-30T03:51:55.181Z,0.50
2023-01-30T03:54:24.288Z,0.40
2023-01-30T03:56:53.472Z,0.30
2023-01-30T03:59:22.970Z,0.50
2023-01-30T04:01:58.710Z,0.30
2023-01-30T04:04:29.250Z,0.30
2023-01-30T04:06:59.424Z,0.30
2023-01-30T04:09:28.733Z,0.30
2023-01-30T04:11:57.969Z,0.50
2023-01-30T04:14:29.893Z,0.40
2023-01-30T04:17:17.451Z,0.30
2023-01-30T04:20:14.653Z,0.20
2023-01-30T04:22:49.263Z,0.20
2023-01-30T04:25:19.271Z,0.30
2023-01-30T04:27:48.413Z,0.40
2023-01-30T04:30:21.206Z,0.40
2023-01-30T04:32:53.796Z,0.20
2023-01-30T04:35:24.097Z,0.20
2023-01-30T04:37:53.192Z,0.10
2023-01-30T04:40:22.616Z,0.10
2023-01-30T04:42:51.420Z,0.40
2023-01-30T04:45:44.792Z,0.50
2023-01-30T04:48:14.708Z,0.20
2023-01-30T04:50:48.839Z,0.10
2023-01-30T04:53:18.670Z,0.10
2023-01-30T04:55:47.914Z,0.10
2023-01-30T04:58:17.321Z,0.00
2023-01-30T05:00:46.724Z,0.00
2023-01-30T05:03:16.634Z,0.00
2023-01-30T05:05:49.814Z,0.20
2023-01-30T05:08:18.874Z,-0.10
2023-01-30T05:10:47.860Z,-0.10
2023-01-30T05:13:16.515Z,-0.10
2023-01-30T05:15:46.567Z,-0.10
2023-01-30T05:18:15.247Z,-0.10
2023-01-30T05:20:44.366Z,-0.20
2023-01-30T05:23:14.986Z,-0.20
2023-01-30T05:25:44.085Z,-0.10
2023-01-30T05:28:12.886Z,-0.20
2023-01-30T05:30:41.676Z,-0.20
2023-01-30T05:33:10.481Z,-0.20
2023-01-30T05:35:39.392Z,-0.30
2023-01-30T05:38:08.420Z,-0.20
2023-01-30T05:40:38.543Z,-0.30
2023-01-30T05:43:07.752Z,-0.20
2023-01-30T05:45:36.571Z,-0.20
2023-01-30T05:48:06.018Z,-0.20
2023-01-30T05:50:34.968Z,-0.20
2023-01-30T05:53:04.014Z,-0.20
2023-01-30T05:55:32.859Z,-0.20
2023-01-30T05:58:03.479Z,-0.10
2023-01-30T06:00:32.311Z,-0.20
2023-01-30T06:03:01.182Z,0.00
2023-01-30T06:05:30.008Z,-0.20
2023-01-30T06:07:59.180Z,-0.20
2023-01-30T06:10:28.223Z,-0.20
2023-01-30T06:12:57.139Z,-0.20
2023-01-30T06:15:28.282Z,-0.20
2023-01-30T06:17:57.348Z,-0.10
2023-01-30T06:20:26.336Z,-0.10
2023-01-30T06:22:55.365Z,-0.10
2023-01-30T06:25:24.243Z,0.00
2023-01-30T06:27:53.057Z,-0.10
2023-01-30T06:30:22.111Z,0.10
2023-01-30T06:32:53.725Z,0.00
2023-01-30T06:35:22.776Z,0.00
2023-01-30T06:37:51.727Z,0.40
2023-01-30T06:40:20.619Z,0.20
2023-01-30T06:42:50.471Z,0.20
2023-01-30T06:45:20.976Z,0.20
2023-01-30T06:47:52.570Z,0.20
2023-01-30T06:50:23.205Z,0.30
2023-01-30T06:52:53.323Z,0.20
2023-01-30T06:55:25.091Z,0.40
2023-01-30T06:58:03.246Z,0.20
2023-01-30T07:00:32.640Z,0.30
2023-01-30T07:03:02.801Z,0.30
2023-01-30T07:05:31.980Z,0.30
2023-01-30T07:08:00.824Z,0.50
2023-01-30T07:10:32.043Z,0.60
2023-01-30T07:13:01.195Z,0.40
2023-01-30T07:15:30.262Z,0.60
2023-01-30T07:17:59.244Z,0.60
2023-01-30T07:20:31.378Z,0.50
2023-01-30T07:23:00.856Z,0.50
2023-01-30T07:25:30.755Z,0.60
2023-01-30T07:28:01.112Z,0.70
2023-01-30T07:30:32.458Z,0.50
2023-01-30T07:33:02.008Z,0.60
2023-01-30T07:35:33.359Z,0.50
2023-01-30T07:38:02.502Z,0.40
2023-01-30T07:40:31.487Z,0.40
2023-01-30T07:43:01.698Z,0.50
2023-01-30T07:45:33.087Z,0.50
2023-01-30T07:48:01.913Z,0.60
2023-01-30T07:50:32.061Z,0.70
2023-01-30T07:53:01.003Z,0.80
2023-01-30T07:55:29.686Z,0.60
2023-01-30T07:57:58.487Z,0.60
2023-01-30T08:00:28.263Z,0.60
2023-01-30T08:02:57.176Z,0.70
2023-01-30T08:05:26.226Z,0.70
2023-01-30T08:08:00.871Z,0.70
2023-01-30T08:10:29.965Z,0.80
2023-01-30T08:12:58.939Z,0.80
2023-01-30T08:15:28.004Z,0.80
2023-01-30T08:17:58.057Z,0.90
2023-01-30T08:20:28.486Z,0.90
2023-01-30T08:23:00.664Z,0.90
2023-01-30T08:25:30.314Z,0.90
2023-01-30T08:28:00.689Z,0.90
2023-01-30T08:30:30.763Z,0.90
2023-01-30T08:33:00.409Z,1.00
2023-01-30T08:35:29.266Z,1.00
2023-01-30T08:38:00.080Z,1.10
2023-01-30T08:40:29.032Z,1.10
2023-01-30T08:42:57.677Z,1.10
2023-01-30T08:45:26.761Z,1.10
2023-01-30T08:47:58.999Z,1.20
2023-01-30T08:50:28.212Z,1.20
2023-01-30T08:52:57.388Z,1.20
2023-01-30T08:55:28.079Z,1.30
2023-01-30T08:57:58.185Z,1.30
2023-01-30T09:00:27.344Z,1.40
2023-01-30T09:02:57.114Z,1.30
2023-01-30T09:05:26.452Z,1.40
2023-01-30T09:07:55.270Z,1.40
2023-01-30T09:10:24.624Z,1.40
2023-01-30T09:12:55.284Z,1.40
2023-01-30T09:15:24.239Z,1.40
2023-01-30T09:17:54.146Z,1.50
2023-01-30T09:20:23.369Z,1.50
2023-01-30T09:22:52.486Z,1.50
2023-01-30T09:25:21.381Z,1.50
2023-01-30T09:27:51.014Z,1.60
2023-01-30T09:30:22.035Z,1.60
2023-01-30T09:32:51.148Z,1.60
2023-01-30T09:35:20.143Z,1.70
2023-01-30T09:37:50.201Z,1.60
2023-01-30T09:40:22.498Z,1.70
2023-01-30T09:43:28.477Z,1.70
2023-01-30T09:46:13.789Z,1.70
2023-01-30T09:48:50.341Z,1.70
2023-01-30T09:51:53.509Z,1.80
2023-01-30T09:54:25.852Z,1.80
2023-01-30T09:57:21.458Z,1.80
2023-01-30T09:59:58.149Z,1.90
2023-01-30T10:02:38.334Z,1.90
2023-01-30T10:05:08.113Z,2.00
2023-01-30T10:07:55.767Z,1.90
2023-01-30T10:10:39.955Z,2.00
2023-01-30T10:13:25.642Z,2.00
2023-01-30T10:16:02.244Z,1.90
2023-01-30T10:21:47.954Z,1.90
2023-01-30T10:24:31.493Z,1.90
2023-01-30T10:27:01.520Z,1.90
2023-01-30T10:29:34.834Z,1.90
2023-01-30T10:32:08.671Z,1.90
2023-01-30T10:34:40.543Z,1.90
2023-01-30T10:37:14.854Z,2.00
2023-01-30T10:39:55.421Z,2.00
2023-01-30T10:42:30.564Z,2.00
2023-01-30T10:45:13.264Z,1.90
2023-01-30T10:47:56.627Z,2.00
2023-01-30T10:50:31.645Z,2.00
2023-01-30T10:53:11.454Z,2.00
2023-01-30T10:55:46.864Z,2.00
2023-01-30T10:58:26.649Z,2.00
2023-01-30T11:01:00.933Z,2.00
2023-01-30T11:03:38.439Z,2.00
2023-01-30T11:06:12.652Z,2.10
2023-01-30T11:08:43.314Z,2.10
2023-01-30T11:11:34.891Z,2.10
2023-01-30T11:14:06.068Z,2.10
2023-01-30T11:16:43.350Z,2.20
2023-01-30T11:19:21.501Z,2.20
2023-01-30T11:21:52.963Z,2.20
2023-01-30T11:24:25.678Z,2.20
2023-01-30T11:26:54.562Z,2.20
2023-01-30T11:29:28.928Z,2.20
2023-01-30T11:32:03.113Z,2.20
2023-01-30T11:34:32.812Z,2.20
2023-01-30T11:37:15.149Z,2.10
2023-01-30T11:39:53.873Z,2.30
2023-01-30T11:42:33.248Z,2.30
2023-01-30T11:45:16.641Z,2.30
2023-01-30T11:48:02.935Z,2.40
2023-01-30T11:50:40.334Z,2.40
2023-01-30T11:53:29.447Z,2.50
2023-01-30T11:56:07.145Z,2.50
2023-01-30T11:58:40.193Z,2.60
2023-01-30T12:01:11.613Z,2.60
2023-01-30T12:03:48.358Z,2.70
2023-01-30T12:06:25.210Z,2.80
2023-01-30T12:08:55.877Z,2.90
2023-01-30T12:11:32.048Z,2.80
2023-01-30T12:14:14.239Z,2.90
2023-01-30T12:16:53.900Z,2.90
2023-01-30T12:19:37.025Z,2.80
2023-01-30T12:22:19.320Z,2.80
2023-01-30T12:24:56.673Z,2.80
2023-01-30T12:27:35.880Z,2.90
2023-01-30T12:30:11.898Z,3.00
2023-01-30T12:32:40.609Z,3.10
2023-01-30T12:35:16.892Z,3.20
2023-01-30T12:37:56.740Z,3.20
2023-01-30T12:40:36.487Z,3.30
2023-01-30T12:43:28.479Z,3.30
2023-01-30T12:46:06.125Z,3.30
2023-01-30T12:49:10.266Z,3.30
2023-01-30T12:51:56.262Z,3.20
2023-01-30T12:54:40.718Z,3.40
2023-01-30T12:57:19.862Z,3.50
2023-01-30T13:00:01.615Z,3.60
2023-01-30T13:02:51.372Z,3.70
2023-01-30T13:05:30.570Z,3.80
2023-01-30T13:08:15.973Z,3.70
2023-01-30T13:10:51.861Z,3.70
2023-01-30T13:13:28.683Z,3.70
2023-01-30T13:16:08.405Z,3.80
2023-01-30T13:18:44.655Z,3.90
2023-01-30T13:21:20.322Z,3.90
2023-01-30T13:24:02.629Z,3.90
2023-01-30T13:26:34.998Z,4.00
2023-01-30T13:29:06.939Z,4.00
2023-01-30T13:31:40.086Z,4.00
2023-01-30T13:34:13.582Z,4.00
2023-01-30T13:36:48.758Z,4.10
2023-01-30T13:39:24.941Z,4.10
2023-01-30T13:41:59.462Z,4.10
2023-01-30T13:44:32.181Z,4.20
2023-01-30T13:47:13.238Z,4.30
2023-01-30T13:49:48.995Z,4.20
2023-01-30T13:52:28.548Z,4.20
2023-01-30T13:55:05.242Z,4.20
2023-01-30T13:57:46.582Z,4.10
2023-01-30T14:00:31.068Z,4.00
2023-01-30T14:03:31.766Z,3.90
2023-01-30T14:06:16.363Z,3.90
2023-01-30T14:08:55.048Z,3.80
2023-01-30T14:11:39.500Z,3.80
2023-01-30T14:14:33.263Z,3.80
2023-01-30T14:17:14.232Z,3.80
2023-01-30T14:20:01.166Z,3.70
2023-01-30T14:22:36.075Z,3.60
2023-01-30T14:25:35.350Z,3.50
2023-01-30T14:28:51.065Z,3.50
2023-01-30T14:31:53.989Z,3.40
2023-01-30T14:35:04.571Z,3.40
2023-01-30T14:38:13.066Z,3.40
2023-01-30T14:41:11.328Z,3.40
2023-01-30T14:43:53.572Z,3.40
2023-01-30T14:46:54.649Z,3.40
2023-01-30T14:49:34.338Z,3.40
2023-01-30T14:52:05.039Z,3.40
2023-01-30T14:54:42.054Z,3.40
2023-01-30T14:57:32.893Z,3.40
2023-01-30T15:00:17.069Z,3.40
2023-01-30T15:02:55.479Z,3.40
2023-01-30T15:05:32.043Z,3.40
2023-01-30T15:08:08.056Z,3.40
2023-01-30T15:11:06.080Z,3.50
2023-01-30T15:14:07.646Z,3.50
2023-01-30T15:17:08.283Z,3.50
2023-01-30T15:20:13.357Z,3.60
2023-01-30T15:22:55.948Z,3.60
2023-01-30T15:25:38.553Z,3.70
2023-01-30T15:28:20.876Z,3.70
2023-01-30T15:31:10.143Z,3.60
2023-01-30T15:33:46.462Z,3.70
2023-01-30T15:36:25.292Z,3.60
2023-01-30T15:39:05.250Z,3.60
2023-01-30T15:41:41.839Z,3.50
2023-01-30T15:44:49.910Z,3.50
2023-01-30T15:50:26.118Z,3.50
2023-01-30T15:52:56.709Z,3.50
2023-01-30T15:55:29.223Z,3.50
2023-01-30T15:58:02.033Z,3.50
2023-01-30T16:00:34.286Z,3.50
2023-01-30T16:03:04.723Z,3.50
2023-01-30T16:05:34.988Z,3.40
2023-01-30T16:08:20.046Z,3.40
2023-01-30T16:10:49.881Z,3.30
2023-01-30T16:13:21.026Z,3.20
2023-01-30T16:15:55.288Z,3.20
2023-01-30T16:18:31.659Z,3.10
2023-01-30T16:21:05.196Z,3.10
2023-01-30T16:23:38.672Z,3.00
2023-01-30T16:26:09.444Z,2.90
2023-01-30T16:28:38.623Z,2.90
2023-01-30T16:31:10.114Z,2.90
2023-01-30T16:33:39.872Z,2.80
2023-01-30T16:36:33.349Z,2.90
2023-01-30T16:39:03.346Z,2.80
2023-01-30T16:41:35.165Z,2.80
2023-01-30T16:44:18.088Z,2.90
2023-01-30T16:46:57.547Z,2.80
2023-01-30T16:49:33.580Z,2.80
2023-01-30T16:52:06.944Z,2.90
2023-01-30T16:54:37.948Z,2.90
2023-01-30T16:57:07.406Z,2.90
2023-01-30T16:59:37.848Z,2.90
2023-01-30T17:02:08.124Z,2.90
2023-01-30T17:04:41.398Z,2.90
2023-01-30T17:07:34.565Z,2.90
2023-01-30T17:10:03.556Z,2.90
2023-01-30T17:12:43.881Z,3.00
2023-01-30T17:15:31.330Z,2.80
2023-01-30T17:18:00.624Z,2.90
2023-01-30T17:20:41.914Z,2.90
2023-01-30T17:23:18.336Z,2.90
2023-01-30T17:25:50.222Z,2.80
2023-01-30T17:28:24.147Z,2.90
2023-01-30T17:30:53.414Z,2.90
2023-01-30T17:33:22.514Z,2.90
2023-01-30T17:35:51.600Z,3.00
2023-01-30T17:38:22.355Z,3.00
2023-01-30T17:40:51.891Z,3.00
2023-01-30T17:43:20.890Z,3.00
2023-01-30T17:45:50.033Z,3.00
2023-01-30T17:48:18.968Z,3.00
2023-01-30T17:50:48.004Z,3.00
2023-01-30T17:53:17.022Z,3.00
2023-01-30T17:55:47.524Z,2.90
2023-01-30T17:58:18.435Z,2.90
2023-01-30T18:00:47.537Z,2.90
2023-01-30T18:03:16.687Z,2.90
2023-01-30T18:05:45.820Z,2.90
2023-01-30T18:08:15.355Z,2.90
2023-01-30T18:10:44.337Z,2.90
2023-01-30T18:13:15.083Z,2.90
2023-01-30T18:15:44.164Z,2.90
2023-01-30T18:18:16.154Z,2.80
2023-01-30T18:20:45.844Z,2.90
2023-01-30T18:23:16.489Z,2.90
2023-01-30T18:25:45.404Z,2.90
2023-01-30T18:28:15.846Z,2.90
2023-01-30T18:30:45.007Z,2.90
2023-01-30T18:33:14.203Z,2.90
2023-01-30T18:35:43.449Z,2.90
2023-01-30T18:38:12.656Z,2.90
2023-01-30T18:40:41.810Z,2.90
2023-01-30T18:43:11.032Z,3.00
2023-01-30T18:45:41.440Z,3.00
2023-01-30T18:48:10.845Z,3.00
2023-01-30T18:50:39.831Z,3.00
2023-01-30T18:53:09.244Z,3.00
2023-01-30T18:55:38.611Z,3.10
2023-01-30T18:58:07.912Z,3.10
2023-01-30T19:00:37.247Z,3.10
2023-01-30T19:03:08.487Z,3.10
2023-01-30T19:05:37.612Z,3.10
2023-01-30T19:08:06.584Z,3.10
2023-01-30T19:10:35.299Z,3.10
2023-01-30T19:13:21.564Z,3.20
2023-01-30T19:15:50.522Z,3.20
2023-01-30T19:18:20.639Z,3.30
2023-01-30T19:20:49.362Z,3.30
2023-01-30T19:23:18.210Z,3.30
2023-01-30T19:25:53.541Z,3.30
2023-01-30T19:28:22.408Z,3.20
2023-01-30T19:30:51.436Z,3.20
2023-01-30T19:33:22.776Z,3.10
2023-01-30T19:35:52.118Z,3.10
2023-01-30T19:38:20.950Z,3.00
2023-01-30T19:40:50.188Z,3.00
2023-01-30T19:43:19.469Z,3.00
2023-01-30T19:45:58.124Z,2.90
2023-01-30T19:48:29.009Z,2.90
2023-01-30T19:50:58.180Z,2.90
2023-01-30T19:53:27.715Z,2.90
2023-01-30T19:55:57.000Z,2.90
2023-01-30T19:58:25.745Z,2.90
2023-01-30T20:00:54.906Z,2.90
2023-01-30T20:03:23.957Z,2.90
2023-01-30T20:05:55.312Z,2.90
2023-01-30T20:08:32.204Z,2.90
2023-01-30T20:11:05.233Z,2.90
2023-01-30T20:13:36.745Z,2.90
2023-01-30T20:16:06.704Z,2.90
2023-01-30T20:18:38.267Z,3.00
2023-01-30T20:21:12.103Z,3.00
2023-01-30T20:23:42.332Z,3.10
2023-01-30T20:26:14.432Z,3.10
2023-01-30T20:28:44.397Z,3.00
2023-01-30T20:31:15.654Z,3.00
2023-01-30T20:33:45.107Z,2.90
2023-01-30T20:36:18.660Z,2.90
2023-01-30T20:38:49.819Z,2.90
2023-01-30T20:41:21.148Z,2.90
2023-01-30T20:43:52.763Z,2.90
2023-01-30T20:46:24.670Z,2.90
2023-01-30T20:48:55.049Z,2.90
2023-01-30T20:51:27.007Z,2.90
2023-01-30T20:53:58.226Z,3.00
2023-01-30T20:56:32.124Z,3.00
2023-01-30T20:59:03.540Z,3.10
2023-01-30T21:01:33.444Z,3.00
2023-01-30T21:04:07.109Z,3.10
2023-01-30T21:06:43.787Z,3.20
2023-01-30T21:09:16.669Z,3.20
2023-01-30T21:11:46.888Z,3.30
2023-01-30T21:14:17.333Z,3.30
2023-01-30T21:16:46.850Z,3.30
2023-01-30T21:19:17.963Z,3.30
2023-01-30T21:21:52.755Z,3.40
2023-01-30T21:24:24.399Z,3.40
2023-01-30T21:26:53.944Z,3.40
2023-01-30T21:29:25.157Z,3.40
2023-01-30T21:31:55.991Z,3.40
2023-01-30T21:34:25.283Z,3.40
2023-01-30T21:37:13.131Z,3.40
2023-01-30T21:39:59.201Z,3.40
2023-01-30T21:42:45.604Z,3.30
2023-01-30T21:45:15.369Z,3.30
2023-01-30T21:47:44.506Z,3.30
2023-01-30T21:50:13.602Z,3.40
2023-01-30T21:52:44.125Z,3.40
2023-01-30T21:55:13.115Z,3.50
2023-01-30T21:57:41.841Z,3.50
2023-01-30T22:00:12.082Z,3.40
2023-01-30T22:02:41.358Z,3.40
2023-01-30T22:05:11.255Z,3.50
2023-01-30T22:07:40.380Z,3.50
2023-01-30T22:10:12.443Z,3.40
2023-01-30T22:12:41.692Z,3.40
2023-01-30T22:15:11.168Z,3.40
2023-01-30T22:17:40.343Z,3.40
2023-01-30T22:20:10.753Z,3.40
2023-01-30T22:22:39.932Z,3.50
2023-01-30T22:25:11.808Z,3.40
2023-01-30T22:27:40.612Z,3.50
2023-01-30T22:30:10.639Z,3.40
2023-01-30T22:32:39.741Z,3.50
2023-01-30T22:35:09.681Z,3.50
2023-01-30T22:37:38.442Z,3.60
2023-01-30T22:40:08.455Z,3.50
2023-01-30T22:42:39.457Z,3.60
2023-01-30T22:45:09.732Z,3.70
2023-01-30T22:47:38.455Z,3.80
2023-01-30T22:50:07.860Z,3.80
2023-01-30T22:52:36.955Z,3.70
2023-01-30T22:55:06.372Z,3.80
2023-01-30T22:57:35.074Z,3.80
2023-01-30T23:00:06.505Z,3.80
2023-01-30T23:02:36.084Z,3.90
2023-01-30T23:05:05.688Z,3.90
2023-01-30T23:07:35.840Z,3.90
2023-01-30T23:10:05.125Z,3.90
2023-01-30T23:12:51.097Z,3.90
2023-01-30T23:15:21.672Z,3.90
2023-01-30T23:18:08.155Z,4.00
2023-01-30T23:20:37.196Z,4.00
2023-01-30T23:23:07.123Z,3.90
2023-01-30T23:25:40.625Z,3.90
2023-01-30T23:28:09.790Z,3.90
2023-01-30T23:30:40.520Z,3.90
2023-01-30T23:33:09.756Z,3.90
2023-01-30T23:35:38.926Z,3.90
2023-01-30T23:38:16.676Z,3.90
2023-01-30T23:40:45.963Z,3.90
2023-01-30T23:43:15.008Z,3.90
2023-01-30T23:45:45.250Z,3.90
2023-01-30T23:48:13.980Z,3.90
2023-01-30T23:50:43.096Z,3.90
2023-01-30T23:53:12.282Z,3.80
2023-01-30T23:55:40.958Z,3.80
2023-01-30T23:58:09.979Z,3.90
